createdAt,value
2022-11-13T00:01:26.576Z,11.50
2022-11-13T00:03:53.838Z,12.60
2022-11-13T00:06:21.248Z,11.10
2022-11-13T00:08:49.002Z,9.70
2022-11-13T00:11:20.582Z,8.80
2022-11-13T00:13:48.916Z,8.13
2022-11-13T00:16:21.770Z,9.07
2022-11-13T00:18:48.978Z,7.53
2022-11-13T00:21:18.892Z,8.33
2022-11-13T00:23:46.723Z,7.10
2022-11-13T00:26:18.604Z,6.70
2022-11-13T00:28:57.939Z,7.67
2022-11-13T00:31:25.826Z,6.20
2022-11-13T00:36:40.970Z,6.17
2022-11-13T00:39:47.377Z,6.40
2022-11-13T00:42:14.630Z,7.07
2022-11-13T00:44:42.413Z,6.77
2022-11-13T00:47:09.774Z,6.73
2022-11-13T00:49:36.970Z,7.77
2022-11-13T00:52:06.064Z,8.43
2022-11-13T00:54:33.295Z,8.13
2022-11-13T00:57:00.501Z,7.23
2022-11-13T00:59:27.615Z,7.57
2022-11-13T01:01:54.974Z,8.60
2022-11-13T01:04:25.318Z,7.87
2022-11-13T01:06:52.618Z,8.00
2022-11-13T01:09:20.126Z,7.00
2022-11-13T01:11:47.488Z,7.10
2022-11-13T01:14:15.044Z,7.10
2022-11-13T01:16:42.246Z,6.77
2022-11-13T01:19:09.523Z,7.23
2022-11-13T01:21:36.974Z,6.93
2022-11-13T01:24:04.514Z,6.07
2022-11-13T01:26:32.306Z,6.00
2022-11-13T01:29:01.161Z,6.50
2022-11-13T01:31:31.121Z,7.00
2022-11-13T01:34:14.176Z,6.37
2022-11-13T01:36:54.103Z,6.43
2022-11-13T01:39:25.972Z,6.13
2022-11-13T01:41:53.514Z,4.83
2022-11-13T01:44:21.017Z,5.10
2022-11-13T01:46:55.780Z,6.07
2022-11-13T01:49:33.460Z,6.00
2022-11-13T01:52:07.325Z,5.53
2022-11-13T01:54:43.736Z,5.90
2022-11-13T01:57:12.649Z,5.67
2022-11-13T01:59:45.658Z,5.47
2022-11-13T02:02:12.806Z,5.20
2022-11-13T02:04:40.282Z,6.00
2022-11-13T02:07:11.864Z,5.93
2022-11-13T02:09:46.931Z,5.90
2022-11-13T02:12:20.884Z,5.40
2022-11-13T02:14:55.266Z,5.37
2022-11-13T02:17:31.463Z,5.50
2022-11-13T02:20:08.899Z,5.37
2022-11-13T02:23:11.948Z,5.33
2022-11-13T02:25:43.158Z,5.03
2022-11-13T02:28:10.520Z,5.73
2022-11-13T02:30:38.183Z,5.50
2022-11-13T02:33:31.455Z,5.20
2022-11-13T02:35:59.988Z,4.90
2022-11-13T02:38:27.975Z,5.53
2022-11-13T02:40:55.696Z,5.00
2022-11-13T02:43:23.570Z,5.63
2022-11-13T02:45:51.255Z,5.30
2022-11-13T02:48:18.978Z,5.47
2022-11-13T02:50:46.611Z,5.67
2022-11-13T02:53:30.389Z,5.00
2022-11-13T02:56:39.359Z,5.97
2022-11-13T02:59:31.072Z,5.43
2022-11-13T03:02:24.854Z,5.37
2022-11-13T03:05:12.534Z,5.83
2022-11-13T03:07:55.309Z,4.90
2022-11-13T03:10:36.540Z,5.07
2022-11-13T03:13:28.781Z,5.20
2022-11-13T03:16:21.241Z,5.67
2022-11-13T03:19:18.693Z,4.87
2022-11-13T03:22:07.405Z,4.50
2022-11-13T03:24:56.904Z,5.30
2022-11-13T03:27:40.258Z,6.20
2022-11-13T03:30:29.461Z,4.87
2022-11-13T03:33:11.839Z,5.47
2022-11-13T03:35:51.163Z,5.17
2022-11-13T03:38:31.152Z,5.30
2022-11-13T03:41:20.522Z,5.20
2022-11-13T03:44:04.154Z,5.60
2022-11-13T03:46:46.968Z,5.23
2022-11-13T03:50:45.603Z,5.90
2022-11-13T03:53:28.867Z,5.60
2022-11-13T03:56:12.578Z,5.87
2022-11-13T03:59:03.725Z,5.80
2022-11-13T04:01:47.112Z,5.53
2022-11-13T04:04:15.637Z,5.10
2022-11-13T04:06:43.042Z,4.90
2022-11-13T04:09:10.636Z,5.70
2022-11-13T04:11:37.921Z,5.77
2022-11-13T04:14:06.442Z,5.40
2022-11-13T04:16:33.489Z,5.40
2022-11-13T04:19:00.697Z,5.40
2022-11-13T04:21:28.070Z,5.63
2022-11-13T04:23:55.277Z,5.10
2022-11-13T04:26:22.669Z,5.20
2022-11-13T04:28:49.904Z,5.43
2022-11-13T04:31:17.561Z,5.40
2022-11-13T04:33:44.799Z,5.57
2022-11-13T04:36:12.181Z,5.87
2022-11-13T04:38:39.296Z,5.30
2022-11-13T04:41:25.059Z,5.77
2022-11-13T04:43:52.122Z,5.87
2022-11-13T04:46:19.320Z,5.50
2022-11-13T04:48:46.758Z,5.73
2022-11-13T04:51:14.484Z,5.50
2022-11-13T04:53:42.047Z,5.17
2022-11-13T04:56:09.177Z,5.60
2022-11-13T04:58:36.618Z,4.93
2022-11-13T05:01:07.026Z,5.03
2022-11-13T05:03:34.484Z,5.10
2022-11-13T05:06:11.026Z,4.83
2022-11-13T05:08:38.337Z,5.47
2022-11-13T05:11:06.080Z,4.77
2022-11-13T05:13:35.975Z,4.97
2022-11-13T05:16:12.891Z,4.37
2022-11-13T05:18:40.788Z,4.53
2022-11-13T05:21:10.108Z,4.50
2022-11-13T05:23:37.468Z,4.13
2022-11-13T05:26:08.836Z,4.23
2022-11-13T05:28:36.942Z,4.30
2022-11-13T05:31:13.779Z,4.77
2022-11-13T05:33:42.601Z,4.40
2022-11-13T05:36:14.143Z,4.33
2022-11-13T05:38:42.569Z,3.93
2022-11-13T05:41:21.858Z,4.17
2022-11-13T05:43:51.755Z,4.33
2022-11-13T05:46:26.297Z,4.10
2022-11-13T05:48:57.925Z,3.73
2022-11-13T05:51:34.461Z,4.13
2022-11-13T05:54:02.592Z,4.03
2022-11-13T05:56:34.161Z,4.07
2022-11-13T05:59:03.180Z,4.20
2022-11-13T06:01:37.110Z,4.30
2022-11-13T06:04:06.553Z,4.47
2022-11-13T06:06:34.524Z,4.53
2022-11-13T06:09:05.382Z,3.97
2022-11-13T06:11:33.355Z,3.80
2022-11-13T06:14:01.485Z,4.20
2022-11-13T06:16:34.571Z,3.97
2022-11-13T06:19:06.850Z,3.80
2022-11-13T06:21:37.547Z,3.63
2022-11-13T06:24:05.490Z,3.87
2022-11-13T06:26:36.393Z,4.00
2022-11-13T06:29:07.928Z,4.00
2022-11-13T06:31:38.049Z,4.00
2022-11-13T06:34:06.713Z,4.07
2022-11-13T06:36:37.681Z,3.60
2022-11-13T06:39:09.887Z,3.47
2022-11-13T06:41:39.397Z,3.73
2022-11-13T06:44:06.901Z,4.17
2022-11-13T06:46:34.615Z,4.20
2022-11-13T06:49:02.540Z,3.90
2022-11-13T06:51:31.625Z,3.70
2022-11-13T06:53:59.648Z,3.80
2022-11-13T06:56:27.623Z,3.43
2022-11-13T06:58:57.326Z,3.77
2022-11-13T07:01:26.912Z,3.67
2022-11-13T07:03:54.751Z,3.33
2022-11-13T07:06:24.698Z,3.60
2022-11-13T07:08:52.206Z,3.20
2022-11-13T07:11:24.392Z,3.27
2022-11-13T07:13:51.722Z,4.20
2022-11-13T07:16:19.759Z,3.27
2022-11-13T07:18:54.960Z,3.37
2022-11-13T07:21:25.793Z,3.23
2022-11-13T07:23:52.958Z,3.00
2022-11-13T07:26:20.497Z,3.13
2022-11-13T07:28:49.133Z,3.33
2022-11-13T07:31:18.253Z,2.67
2022-11-13T07:33:48.182Z,3.00
2022-11-13T07:36:16.740Z,2.63
2022-11-13T07:38:43.965Z,3.17
2022-11-13T07:41:11.361Z,2.77
2022-11-13T07:43:38.878Z,2.50
2022-11-13T07:46:06.278Z,2.77
2022-11-13T07:48:33.753Z,2.57
2022-11-13T07:51:02.752Z,2.60
2022-11-13T07:53:30.874Z,2.47
2022-11-13T07:56:02.120Z,2.20
2022-11-13T07:58:30.307Z,2.47
2022-11-13T08:01:04.397Z,2.43
2022-11-13T08:03:32.576Z,2.40
2022-11-13T08:06:06.084Z,2.70
2022-11-13T08:08:33.774Z,2.67
2022-11-13T08:11:09.595Z,2.40
2022-11-13T08:13:38.322Z,2.30
2022-11-13T08:16:06.277Z,2.50
2022-11-13T08:18:33.977Z,2.37
2022-11-13T08:21:03.974Z,2.33
2022-11-13T08:23:32.448Z,2.53
2022-11-13T08:26:06.127Z,2.40
2022-11-13T08:28:34.018Z,2.40
2022-11-13T08:31:01.953Z,2.47
2022-11-13T08:33:30.229Z,2.30
2022-11-13T08:35:59.957Z,2.47
2022-11-13T08:38:27.990Z,2.30
2022-11-13T08:41:04.389Z,2.57
2022-11-13T08:43:34.501Z,2.50
2022-11-13T08:46:01.620Z,2.80
2022-11-13T08:48:29.137Z,2.30
2022-11-13T08:50:58.108Z,2.50
2022-11-13T08:53:26.588Z,2.50
2022-11-13T08:55:53.639Z,2.63
2022-11-13T08:58:20.925Z,3.07
2022-11-13T09:00:48.600Z,2.87
2022-11-13T09:03:15.846Z,3.20
2022-11-13T09:05:43.119Z,3.00
2022-11-13T09:08:11.070Z,2.43
2022-11-13T09:10:38.439Z,2.37
2022-11-13T09:13:09.023Z,2.40
2022-11-13T09:16:34.522Z,2.27
2022-11-13T09:19:39.219Z,2.40
2022-11-13T09:22:06.910Z,2.50
2022-11-13T09:24:34.363Z,2.50
2022-11-13T09:27:01.899Z,2.50
2022-11-13T09:29:29.282Z,2.50
2022-11-13T09:31:57.093Z,2.80
2022-11-13T09:34:28.009Z,2.47
2022-11-13T09:36:55.456Z,2.40
2022-11-13T09:39:22.733Z,2.63
2022-11-13T09:42:15.851Z,2.50
2022-11-13T09:44:52.098Z,2.40
2022-11-13T09:47:37.893Z,2.33
2022-11-13T09:50:27.623Z,2.37
2022-11-13T09:52:55.940Z,2.30
2022-11-13T09:55:34.016Z,2.20
2022-11-13T09:58:45.079Z,2.30
2022-11-13T10:01:28.791Z,2.20
2022-11-13T10:04:11.970Z,1.80
2022-11-13T10:07:03.180Z,2.30
2022-11-13T10:10:27.220Z,2.00
2022-11-13T10:13:52.210Z,1.93
2022-11-13T10:17:07.112Z,3.80
2022-11-13T10:19:45.150Z,2.20
2022-11-13T10:22:33.858Z,2.40
2022-11-13T10:25:29.615Z,2.70
2022-11-13T10:28:21.566Z,1.90
2022-11-13T10:30:50.843Z,2.27
2022-11-13T10:33:22.440Z,2.90
2022-11-13T10:36:30.120Z,2.17
2022-11-13T10:39:08.882Z,2.03
2022-11-13T10:41:49.054Z,1.93
2022-11-13T10:44:32.557Z,1.93
2022-11-13T10:47:36.122Z,1.90
2022-11-13T10:50:28.532Z,1.90
2022-11-13T10:52:57.325Z,1.90
2022-11-13T10:55:38.928Z,1.87
2022-11-13T10:58:19.832Z,2.00
2022-11-13T11:00:50.011Z,2.30
2022-11-13T11:03:22.018Z,2.10
2022-11-13T11:06:01.772Z,1.77
2022-11-13T11:08:35.722Z,2.40
2022-11-13T11:11:36.948Z,2.00
2022-11-13T11:14:42.341Z,2.00
2022-11-13T11:17:15.783Z,1.90
2022-11-13T11:19:52.284Z,1.90
2022-11-13T11:22:27.990Z,2.10
2022-11-13T11:25:05.276Z,2.00
2022-11-13T11:27:45.257Z,1.70
2022-11-13T11:30:28.026Z,1.60
2022-11-13T11:33:26.344Z,1.87
2022-11-13T11:36:09.137Z,1.60
2022-11-13T11:39:02.837Z,1.70
2022-11-13T11:42:24.320Z,1.63
2022-11-13T11:45:20.464Z,1.70
2022-11-13T11:47:48.435Z,2.00
2022-11-13T11:50:38.547Z,1.93
2022-11-13T11:53:40.537Z,1.53
2022-11-13T11:56:37.473Z,1.67
2022-11-13T11:59:33.961Z,1.63
2022-11-13T12:02:06.931Z,8.87
2022-11-13T12:05:11.557Z,14.37
2022-11-13T12:07:57.019Z,4.80
2022-11-13T12:10:43.301Z,3.17
2022-11-13T12:13:13.370Z,1.90
2022-11-13T12:15:56.558Z,1.43
2022-11-13T12:18:57.796Z,1.50
2022-11-13T12:21:31.591Z,1.40
2022-11-13T12:24:33.585Z,1.50
2022-11-13T12:27:47.383Z,1.77
2022-11-13T12:30:41.717Z,2.47
2022-11-13T12:33:34.011Z,2.17
2022-11-13T12:36:03.658Z,2.00
2022-11-13T12:38:51.859Z,2.03
2022-11-13T12:41:36.623Z,1.87
2022-11-13T12:44:25.399Z,1.87
2022-11-13T12:46:55.943Z,2.20
2022-11-13T12:49:23.028Z,2.07
2022-11-13T12:52:16.422Z,1.80
2022-11-13T12:54:44.165Z,1.80
2022-11-13T12:57:14.496Z,2.00
2022-11-13T12:59:54.639Z,2.03
2022-11-13T13:02:46.443Z,1.70
2022-11-13T13:05:25.401Z,2.30
2022-11-13T13:08:44.610Z,2.20
2022-11-13T13:11:41.942Z,1.60
2022-11-13T13:14:26.009Z,1.80
2022-11-13T13:17:04.285Z,1.70
2022-11-13T13:19:33.638Z,2.30
2022-11-13T13:22:00.757Z,1.70
2022-11-13T13:24:33.092Z,1.90
2022-11-13T13:27:01.558Z,1.90
2022-11-13T13:29:30.500Z,2.10
2022-11-13T13:32:25.323Z,2.00
2022-11-13T13:35:17.256Z,1.83
2022-11-13T13:38:17.475Z,1.70
2022-11-13T13:41:02.636Z,1.50
2022-11-13T13:43:48.752Z,1.60
2022-11-13T13:46:31.966Z,1.70
2022-11-13T13:49:09.700Z,1.87
2022-11-13T13:51:48.358Z,1.80
2022-11-13T13:54:27.997Z,1.60
2022-11-13T13:56:58.254Z,1.80
2022-11-13T13:59:37.540Z,1.70
2022-11-13T14:02:25.030Z,1.97
2022-11-13T14:04:54.723Z,1.70
2022-11-13T14:07:24.023Z,2.00
2022-11-13T14:10:05.523Z,1.50
2022-11-13T14:12:32.882Z,1.80
2022-11-13T14:15:00.158Z,2.10
2022-11-13T14:17:29.236Z,3.20
2022-11-13T14:20:01.223Z,2.83
2022-11-13T14:22:29.183Z,2.60
2022-11-13T14:25:01.616Z,3.80
2022-11-13T14:27:31.162Z,3.43
2022-11-13T14:30:03.431Z,2.50
2022-11-13T14:32:45.661Z,2.00
2022-11-13T14:35:26.569Z,1.43
2022-11-13T14:37:56.109Z,1.70
2022-11-13T14:40:31.336Z,1.87
2022-11-13T14:43:07.785Z,2.60
2022-11-13T14:45:35.206Z,2.87
2022-11-13T14:48:21.299Z,2.50
2022-11-13T14:50:55.465Z,2.70
2022-11-13T14:54:07.873Z,2.20
2022-11-13T14:56:42.558Z,1.90
2022-11-13T14:59:19.999Z,2.80
2022-11-13T15:01:58.256Z,2.63
2022-11-13T15:04:26.255Z,5.20
2022-11-13T15:06:56.281Z,5.50
2022-11-13T15:09:25.852Z,4.63
2022-11-13T15:11:53.122Z,3.10
2022-11-13T15:14:22.341Z,3.00
2022-11-13T15:16:53.024Z,3.33
2022-11-13T15:19:35.313Z,3.83
2022-11-13T15:22:25.807Z,5.43
2022-11-13T15:24:50.200Z,4.70
2022-11-13T15:27:18.772Z,4.50
2022-11-13T15:29:46.018Z,5.50
2022-11-13T15:32:16.030Z,5.40
2022-11-13T15:34:43.440Z,7.33
2022-11-13T15:37:16.567Z,7.80
2022-11-13T15:39:43.706Z,7.37
2022-11-13T15:42:17.603Z,7.73
2022-11-13T15:44:44.712Z,7.00
2022-11-13T15:47:35.776Z,5.27
2022-11-13T15:50:14.859Z,8.18
2022-11-13T15:52:48.178Z,7.67
2022-11-13T15:55:31.637Z,5.70
2022-11-13T15:58:03.608Z,5.57
2022-11-13T16:00:30.938Z,6.30
2022-11-13T16:02:58.540Z,6.37
2022-11-13T16:05:29.567Z,6.03
2022-11-13T16:07:57.771Z,5.83
2022-11-13T16:10:25.987Z,6.43
2022-11-13T16:12:53.795Z,6.90
2022-11-13T16:15:21.861Z,6.70
2022-11-13T16:17:56.480Z,6.87
2022-11-13T16:20:24.308Z,6.13
2022-11-13T16:22:52.507Z,6.53
2022-11-13T16:25:22.577Z,5.97
2022-11-13T16:27:51.029Z,6.77
2022-11-13T16:30:21.540Z,8.53
2022-11-13T16:32:49.265Z,19.40
2022-11-13T16:35:19.009Z,12.03
2022-11-13T16:37:46.706Z,13.03
2022-11-13T16:40:24.169Z,14.20
2022-11-13T16:42:51.950Z,13.17
2022-11-13T16:45:20.429Z,12.90
2022-11-13T16:47:48.476Z,13.73
2022-11-13T16:50:22.184Z,13.90
2022-11-13T16:52:51.381Z,12.77
2022-11-13T16:55:18.673Z,12.33
2022-11-13T16:57:45.852Z,13.43
2022-11-13T17:00:16.839Z,16.83
2022-11-13T17:02:44.787Z,18.40
2022-11-13T17:05:16.738Z,15.43
2022-11-13T17:07:44.054Z,12.50
2022-11-13T17:10:30.965Z,12.60
2022-11-13T17:12:59.319Z,12.80
2022-11-13T17:15:26.537Z,15.37
2022-11-13T17:17:58.619Z,14.07
2022-11-13T17:20:25.982Z,15.20
2022-11-13T17:22:53.107Z,14.47
2022-11-13T17:25:20.814Z,16.07
2022-11-13T17:27:48.020Z,18.27
2022-11-13T17:30:15.369Z,17.77
2022-11-13T17:32:42.573Z,19.03
2022-11-13T17:35:13.981Z,18.60
2022-11-13T17:37:41.350Z,16.17
2022-11-13T17:40:11.184Z,14.47
2022-11-13T17:42:38.352Z,12.67
2022-11-13T17:45:06.039Z,12.23
2022-11-13T17:47:34.538Z,12.83
2022-11-13T17:50:07.061Z,11.00
2022-11-13T17:52:34.667Z,11.33
2022-11-13T17:55:06.199Z,10.93
2022-11-13T17:57:33.891Z,12.03
2022-11-13T18:00:01.053Z,9.93
2022-11-13T18:02:28.272Z,10.33
2022-11-13T18:04:58.468Z,8.90
2022-11-13T18:07:25.592Z,9.10
2022-11-13T18:09:52.846Z,8.93
2022-11-13T18:12:19.962Z,8.30
2022-11-13T18:14:52.600Z,7.97
2022-11-13T18:17:24.419Z,7.83
2022-11-13T18:19:57.138Z,7.73
2022-11-13T18:22:27.464Z,8.17
2022-11-13T18:24:55.294Z,8.67
2022-11-13T18:27:22.580Z,9.80
2022-11-13T18:29:52.096Z,10.57
2022-11-13T18:32:19.286Z,9.90
2022-11-13T18:34:46.464Z,12.23
2022-11-13T18:37:13.653Z,10.97
2022-11-13T18:39:40.904Z,12.33
2022-11-13T18:42:07.967Z,10.40
2022-11-13T18:44:36.776Z,10.50
2022-11-13T18:47:04.026Z,10.90
2022-11-13T18:49:31.327Z,10.03
2022-11-13T18:51:58.517Z,9.87
2022-11-13T18:54:25.738Z,9.37
2022-11-13T18:56:53.672Z,9.63
2022-11-13T18:59:20.890Z,9.63
2022-11-13T19:01:48.196Z,9.53
2022-11-13T19:04:22.697Z,11.33
2022-11-13T19:06:51.392Z,16.37
2022-11-13T19:09:18.774Z,15.17
2022-11-13T19:11:46.404Z,16.97
2022-11-13T19:14:16.766Z,14.80
2022-11-13T19:16:44.251Z,15.67
2022-11-13T19:19:19.010Z,14.40
2022-11-13T19:21:46.945Z,13.07
2022-11-13T19:24:15.116Z,12.53
2022-11-13T19:26:43.990Z,11.93
2022-11-13T19:29:11.954Z,11.80
2022-11-13T19:31:39.299Z,13.67
2022-11-13T19:34:10.389Z,14.20
2022-11-13T19:36:37.968Z,13.40
2022-11-13T19:39:05.434Z,12.00
2022-11-13T19:41:33.041Z,12.10
2022-11-13T19:44:00.572Z,12.87
2022-11-13T19:46:29.133Z,12.77
2022-11-13T19:48:56.268Z,13.37
2022-11-13T19:51:25.317Z,14.67
2022-11-13T19:54:00.344Z,14.43
2022-11-13T19:56:28.866Z,13.47
2022-11-13T19:58:56.725Z,12.93
2022-11-13T20:01:26.713Z,12.63
2022-11-13T20:04:04.083Z,12.27
2022-11-13T20:06:33.494Z,14.07
2022-11-13T20:09:02.605Z,13.70
2022-11-13T20:11:31.106Z,12.63
2022-11-13T20:13:58.690Z,13.07
2022-11-13T20:16:26.488Z,11.17
2022-11-13T20:18:58.075Z,11.43
2022-11-13T20:21:31.501Z,10.43
2022-11-13T20:24:00.047Z,10.77
2022-11-13T20:26:28.606Z,10.40
2022-11-13T20:28:55.895Z,13.63
2022-11-13T20:31:25.737Z,13.47
2022-11-13T20:33:56.185Z,16.70
2022-11-13T20:36:25.087Z,16.10
2022-11-13T20:38:55.569Z,15.33
2022-11-13T20:41:24.249Z,16.50
2022-11-13T20:43:52.973Z,14.97
2022-11-13T20:46:21.479Z,14.17
2022-11-13T20:48:49.304Z,12.73
2022-11-13T20:51:28.397Z,12.90
2022-11-13T20:53:56.051Z,12.93
2022-11-13T20:56:25.932Z,13.97
2022-11-13T20:58:53.821Z,14.50
2022-11-13T21:01:25.385Z,16.37
2022-11-13T21:03:53.239Z,13.60
2022-11-13T21:06:25.081Z,12.90
2022-11-13T21:08:55.317Z,12.70
2022-11-13T21:11:29.416Z,13.20
2022-11-13T21:13:57.778Z,12.50
2022-11-13T21:16:25.496Z,14.47
2022-11-13T21:18:52.609Z,14.10
2022-11-13T21:21:22.480Z,13.67
2022-11-13T21:23:49.837Z,13.70
2022-11-13T21:26:24.911Z,13.17
2022-11-13T21:28:56.991Z,13.40
2022-11-13T21:31:24.366Z,13.90
2022-11-13T21:33:55.365Z,13.70
2022-11-13T21:36:26.327Z,12.83
2022-11-13T21:38:55.661Z,13.83
2022-11-13T21:41:25.397Z,13.73
2022-11-13T21:43:59.992Z,13.77
2022-11-13T21:46:33.422Z,14.23
2022-11-13T21:49:10.704Z,14.53
2022-11-13T21:51:40.592Z,16.20
2022-11-13T21:54:10.767Z,15.07
2022-11-13T21:56:39.912Z,15.80
2022-11-13T21:59:07.797Z,17.67
2022-11-13T22:01:38.656Z,16.93
2022-11-13T22:04:18.834Z,18.73
2022-11-13T22:06:49.191Z,17.63
2022-11-13T22:09:25.465Z,15.67
2022-11-13T22:11:53.899Z,16.33
2022-11-13T22:14:21.208Z,14.43
2022-11-13T22:16:48.784Z,16.67
2022-11-13T22:19:26.940Z,16.60
2022-11-13T22:21:54.981Z,16.17
2022-11-13T22:24:22.217Z,14.80
2022-11-13T22:26:49.324Z,16.00
2022-11-13T22:29:19.748Z,15.90
2022-11-13T22:31:46.857Z,15.53
2022-11-13T22:34:16.703Z,16.13
2022-11-13T22:36:43.961Z,15.47
2022-11-13T22:39:12.680Z,14.70
2022-11-13T22:41:40.388Z,16.43
2022-11-13T22:44:13.028Z,14.73
2022-11-13T22:46:40.529Z,15.13
2022-11-13T22:49:08.487Z,13.80
2022-11-13T22:51:39.438Z,14.23
2022-11-13T22:54:10.104Z,15.67
2022-11-13T22:56:39.544Z,14.67
2022-11-13T22:59:11.461Z,12.70
2022-11-13T23:01:41.503Z,13.00
2022-11-13T23:04:13.879Z,13.80
2022-11-13T23:06:41.765Z,14.13
2022-11-13T23:09:09.634Z,13.30
2022-11-13T23:11:40.299Z,14.37
2022-11-13T23:14:12.428Z,13.47
2022-11-13T23:16:40.202Z,13.77
2022-11-13T23:19:07.536Z,13.43
2022-11-13T23:21:34.927Z,13.50
2022-11-13T23:24:02.437Z,12.07
2022-11-13T23:26:29.795Z,12.33
2022-11-13T23:28:57.445Z,12.20
2022-11-13T23:31:24.972Z,11.53
2022-11-13T23:33:52.363Z,12.87
2022-11-13T23:36:19.752Z,11.87
2022-11-13T23:38:47.177Z,11.83
2022-11-13T23:41:14.365Z,10.80
2022-11-13T23:46:28.996Z,11.33
2022-11-13T23:48:56.204Z,11.20
2022-11-13T23:51:23.397Z,9.90
2022-11-13T23:53:50.676Z,9.97
2022-11-13T23:56:17.711Z,9.00
2022-11-13T23:58:44.835Z,9.70
